Time;durP1;ratioP1;P1;durP2;ratioP2;P2;SDS_P1;SDS_P2;PMS_P1;PMS_P2;Temp;Humidity;BMP_temperature;BMP_pressure;BME280_temperature;BME280_humidity;BME280_pressure;Samples;Min_cycle;Max_cycle;Signal;HPM_P1;HPM_P2
2023/07/10 00:00:30;;;;;;;14.77;9.90;;;21.10;99.90;;;;;;5054308;28;21239;-65
2023/07/10 00:02:55;;;;;;;15.75;10.32;;;21.10;99.90;;;;;;4986148;28;20443;-64
2023/07/10 00:05:21;;;;;;;15.33;10.00;;;21.10;99.90;;;;;;4982733;28;20417;-64
2023/07/10 00:07:47;;;;;;;14.80;10.30;;;21.00;99.90;;;;;;4986406;28;20409;-64
2023/07/10 00:10:15;;;;;;;13.32;9.98;;;21.00;99.90;;;;;;5006936;28;20420;-65
2023/07/10 00:12:43;;;;;;;13.75;10.18;;;21.00;99.90;;;;;;4989688;28;20769;-64
2023/07/10 00:15:18;;;;;;;15.48;10.85;;;21.00;99.90;;;;;;5001952;28;20413;-65
2023/07/10 00:17:45;;;;;;;12.65;10.40;;;21.00;99.90;;;;;;4985151;28;20756;-65
2023/07/10 00:20:26;;;;;;;13.45;10.77;;;21.00;99.90;;;;;;4986911;28;20436;-65
2023/07/10 00:22:52;;;;;;;13.02;11.25;;;20.90;99.90;;;;;;5007258;28;20405;-64
2023/07/10 00:25:19;;;;;;;12.93;11.07;;;21.00;99.90;;;;;;5006042;28;20416;-64
2023/07/10 00:27:48;;;;;;;15.68;12.00;;;21.00;99.90;;;;;;5007041;28;20397;-64
2023/07/10 00:30:17;;;;;;;16.60;12.15;;;20.90;99.90;;;;;;5006538;28;20487;-65
2023/07/10 00:32:47;;;;;;;16.77;12.57;;;20.90;99.90;;;;;;4992042;28;20408;-65
2023/07/10 00:35:17;;;;;;;16.05;12.65;;;20.90;99.90;;;;;;5005757;28;20405;-64
2023/07/10 00:37:46;;;;;;;15.47;12.50;;;20.90;99.90;;;;;;5057573;28;20413;-65
2023/07/10 00:40:22;;;;;;;16.15;12.30;;;20.90;99.90;;;;;;4999321;28;20837;-64
2023/07/10 00:43:11;;;;;;;15.87;12.50;;;20.90;99.90;;;;;;5072418;28;20503;-64
2023/07/10 00:45:37;;;;;;;16.65;13.25;;;20.80;99.90;;;;;;5006396;28;20435;-64
2023/07/10 00:48:21;;;;;;;18.83;13.90;;;20.80;99.90;;;;;;5001210;28;20918;-64
2023/07/10 00:50:49;;;;;;;18.50;13.88;;;20.80;99.90;;;;;;4988142;28;20496;-64
2023/07/10 00:53:25;;;;;;;20.20;14.90;;;20.70;99.90;;;;;;5000929;28;20528;-65
2023/07/10 00:55:54;;;;;;;18.00;14.75;;;20.70;99.90;;;;;;4999630;28;20864;-65
2023/07/10 00:58:37;;;;;;;18.50;15.07;;;20.70;99.90;;;;;;4999998;28;20478;-65
2023/07/10 01:01:14;;;;;;;18.38;15.48;;;20.70;99.90;;;;;;4999426;28;20521;-64
2023/07/10 01:03:41;;;;;;;18.95;15.50;;;20.70;99.90;;;;;;5001473;28;20763;-64
2023/07/10 01:06:30;;;;;;;22.52;15.73;;;20.70;99.90;;;;;;4986840;28;20761;-65
2023/07/10 01:09:04;;;;;;;21.55;16.20;;;20.70;99.90;;;;;;5069878;28;20434;-64
2023/07/10 01:11:31;;;;;;;20.80;16.48;;;20.60;99.90;;;;;;4998377;28;20420;-64
2023/07/10 01:13:58;;;;;;;19.63;16.65;;;20.70;99.90;;;;;;4997627;28;20413;-64
2023/07/10 01:16:25;;;;;;;22.17;16.70;;;20.70;99.90;;;;;;5005095;28;20491;-64
2023/07/10 01:18:51;;;;;;;24.05;16.98;;;20.70;99.90;;;;;;4981342;28;20503;-64
2023/07/10 01:21:26;;;;;;;21.50;16.88;;;20.60;99.90;;;;;;5006538;28;20421;-64
2023/07/10 01:23:53;;;;;;;21.13;17.10;;;20.70;99.90;;;;;;5004315;28;20420;-64
2023/07/10 01:26:18;;;;;;;21.63;16.93;;;20.70;99.90;;;;;;5006326;28;20401;-64
2023/07/10 01:28:44;;;;;;;22.50;17.63;;;20.70;99.90;;;;;;5006413;28;20450;-65
2023/07/10 01:31:13;;;;;;;23.70;17.98;;;20.70;99.90;;;;;;4988240;28;20412;-64
2023/07/10 01:33:47;;;;;;;22.95;17.67;;;20.70;99.90;;;;;;4988637;28;20417;-64
2023/07/10 01:36:16;;;;;;;23.08;17.55;;;20.60;99.90;;;;;;5005391;28;20442;-64
2023/07/10 01:38:53;;;;;;;21.35;16.90;;;20.60;99.90;;;;;;5000589;28;20851;-64
2023/07/10 01:41:22;;;;;;;23.25;17.42;;;20.70;99.90;;;;;;5005868;28;20424;-64
2023/07/10 01:43:48;;;;;;;21.53;17.53;;;20.60;99.90;;;;;;4988286;28;20772;-64
2023/07/10 01:46:25;;;;;;;21.27;17.43;;;20.60;99.90;;;;;;5007277;28;20409;-64
2023/07/10 01:48:54;;;;;;;20.23;17.35;;;20.60;99.90;;;;;;5028721;28;20398;-64
2023/07/10 01:51:22;;;;;;;21.98;17.50;;;20.60;99.90;;;;;;5003013;28;21052;-64
2023/07/10 01:53:47;;;;;;;21.77;17.52;;;20.60;99.90;;;;;;5003149;28;20421;-64
2023/07/10 01:56:17;;;;;;;22.43;16.83;;;20.60;99.90;;;;;;5006825;28;20776;-64
2023/07/10 01:58:42;;;;;;;20.65;17.23;;;20.50;99.90;;;;;;5002808;28;20431;-64
2023/07/10 02:01:09;;;;;;;20.40;16.47;;;20.60;99.90;;;;;;5075193;28;20439;-65
2023/07/10 02:03:34;;;;;;;21.65;16.63;;;20.60;99.90;;;;;;4990456;28;20520;-64
2023/07/10 02:06:00;;;;;;;20.08;16.38;;;20.50;99.90;;;;;;4986089;28;20918;-65
2023/07/10 02:08:26;;;;;;;21.27;16.65;;;20.50;99.90;;;;;;4974425;28;20409;-65
2023/07/10 02:10:52;;;;;;;21.23;16.33;;;20.50;99.90;;;;;;4984727;28;20468;-65
2023/07/10 02:13:18;;;;;;;19.33;15.90;;;20.50;99.90;;;;;;5002322;28;20473;-65
2023/07/10 02:15:43;;;;;;;20.10;16.53;;;20.50;99.90;;;;;;5007902;28;20503;-64
2023/07/10 02:18:09;;;;;;;23.73;16.70;;;20.50;99.90;;;;;;5005536;28;20417;-64
2023/07/10 02:20:35;;;;;;;20.15;16.75;;;20.50;99.90;;;;;;4988727;28;20447;-64
2023/07/10 02:23:00;;;;;;;20.13;16.60;;;20.50;99.90;;;;;;5007711;28;20619;-64
2023/07/10 02:25:26;;;;;;;20.17;16.50;;;20.50;99.90;;;;;;5007083;28;20417;-64
2023/07/10 02:27:52;;;;;;;20.47;17.00;;;20.50;99.90;;;;;;4989379;28;20424;-64
2023/07/10 02:30:17;;;;;;;20.35;16.90;;;20.50;99.90;;;;;;5006769;28;20405;-64
2023/07/10 02:32:43;;;;;;;18.98;16.77;;;20.40;99.90;;;;;;5002351;28;20813;-65
2023/07/10 02:35:09;;;;;;;19.90;16.47;;;20.40;99.90;;;;;;5007399;28;20398;-65
2023/07/10 02:37:34;;;;;;;20.63;16.97;;;20.40;99.90;;;;;;5011211;28;20497;-65
2023/07/10 02:40:01;;;;;;;21.43;16.40;;;20.40;99.90;;;;;;5008876;28;20493;-65
2023/07/10 02:42:27;;;;;;;20.55;16.60;;;20.40;99.90;;;;;;5006650;28;20413;-65
2023/07/10 02:44:53;;;;;;;19.13;16.50;;;20.30;99.90;;;;;;5006865;28;20409;-65
2023/07/10 02:47:18;;;;;;;20.13;16.67;;;20.30;99.90;;;;;;5009232;28;20482;-65
2023/07/10 02:49:44;;;;;;;20.83;16.47;;;20.30;99.90;;;;;;4994176;28;20973;-65
2023/07/10 02:52:09;;;;;;;23.85;16.88;;;20.30;99.90;;;;;;5005931;28;20450;-64
2023/07/10 02:54:35;;;;;;;18.85;15.63;;;20.20;99.90;;;;;;5006641;28;20416;-65
2023/07/10 02:57:01;;;;;;;19.57;15.47;;;20.20;99.90;;;;;;4987455;28;20428;-65
2023/07/10 02:59:28;;;;;;;19.40;15.38;;;20.20;99.90;;;;;;5003901;28;20416;-64
2023/07/10 03:01:54;;;;;;;18.02;15.45;;;20.20;99.90;;;;;;5007013;28;20440;-65
2023/07/10 03:04:20;;;;;;;18.83;16.30;;;20.20;99.90;;;;;;5006434;28;20506;-64
2023/07/10 03:06:49;;;;;;;21.60;16.43;;;20.20;99.90;;;;;;5006974;28;20444;-64
2023/07/10 03:09:17;;;;;;;19.60;15.98;;;20.20;99.90;;;;;;5006845;28;20440;-64
2023/07/10 03:11:43;;;;;;;19.92;16.33;;;20.20;99.90;;;;;;4993831;28;20418;-64
2023/07/10 03:14:09;;;;;;;18.98;16.02;;;20.10;99.90;;;;;;4990616;28;20937;-64
2023/07/10 03:16:34;;;;;;;18.23;15.55;;;20.10;99.90;;;;;;5005032;28;20791;-64
2023/07/10 03:19:00;;;;;;;19.13;16.00;;;20.10;99.90;;;;;;4990064;28;20436;-64
2023/07/10 03:21:26;;;;;;;19.70;15.97;;;20.10;99.90;;;;;;5007178;28;20425;-64
2023/07/10 03:23:52;;;;;;;20.15;15.63;;;20.10;99.90;;;;;;4989327;28;20408;-64
2023/07/10 03:26:18;;;;;;;19.15;14.70;;;20.10;99.90;;;;;;5007130;28;20413;-64
2023/07/10 03:28:44;;;;;;;16.73;14.13;;;20.00;99.90;;;;;;4997671;28;20400;-64
2023/07/10 03:31:10;;;;;;;16.20;12.80;;;20.00;99.90;;;;;;4990132;28;20502;-64
2023/07/10 03:33:35;;;;;;;14.50;11.70;;;20.10;99.90;;;;;;5004958;28;20926;-64
2023/07/10 03:36:06;;;;;;;14.82;10.90;;;20.00;99.90;;;;;;4994426;28;20409;-64
2023/07/10 03:38:32;;;;;;;14.27;9.88;;;20.00;99.90;;;;;;4990366;28;20413;-64
2023/07/10 03:40:58;;;;;;;11.45;9.15;;;20.00;99.90;;;;;;5009492;28;20423;-64
2023/07/10 03:43:25;;;;;;;12.63;9.02;;;19.90;99.90;;;;;;4989431;28;20409;-64
2023/07/10 03:45:51;;;;;;;13.80;8.90;;;19.90;99.90;;;;;;5008853;28;20489;-64
2023/07/10 03:48:17;;;;;;;10.97;8.10;;;19.90;99.90;;;;;;5004788;28;20446;-64
2023/07/10 03:50:43;;;;;;;10.63;7.60;;;19.90;99.90;;;;;;5007997;28;20405;-64
2023/07/10 03:53:09;;;;;;;10.70;7.40;;;19.80;99.90;;;;;;5006233;28;20408;-64
2023/07/10 03:55:35;;;;;;;9.88;7.15;;;19.90;99.90;;;;;;4992929;28;20439;-64
2023/07/10 03:58:01;;;;;;;10.70;7.07;;;19.90;99.90;;;;;;5005630;28;20922;-64
2023/07/10 04:00:26;;;;;;;9.50;6.43;;;19.80;99.90;;;;;;5006157;28;20517;-64
2023/07/10 04:02:52;;;;;;;10.45;6.47;;;19.80;99.90;;;;;;5005958;28;20422;-64
2023/07/10 04:05:18;;;;;;;8.77;5.90;;;19.80;99.90;;;;;;4986641;28;20424;-64
2023/07/10 04:07:43;;;;;;;8.52;6.18;;;19.80;99.90;;;;;;5005771;28;20413;-64
2023/07/10 04:10:09;;;;;;;7.80;5.70;;;19.80;99.90;;;;;;4994610;28;20453;-64
2023/07/10 04:12:35;;;;;;;8.37;5.87;;;19.80;99.90;;;;;;5001886;28;20534;-64
2023/07/10 04:15:01;;;;;;;8.60;5.73;;;19.80;99.90;;;;;;4987510;28;20783;-64
2023/07/10 04:17:26;;;;;;;8.38;5.55;;;19.80;99.90;;;;;;5005200;28;20422;-64
2023/07/10 04:19:52;;;;;;;7.85;5.00;;;19.80;99.90;;;;;;5019319;28;20668;-64
2023/07/10 04:22:18;;;;;;;6.32;4.50;;;19.70;99.90;;;;;;4988214;28;20432;-65
2023/07/10 04:24:43;;;;;;;7.47;4.65;;;19.70;99.90;;;;;;5001424;28;20494;-64
2023/07/10 04:27:09;;;;;;;7.63;4.37;;;19.70;99.90;;;;;;5012842;28;20421;-64
2023/07/10 04:29:35;;;;;;;12.60;4.40;;;19.70;99.90;;;;;;4987000;28;20416;-64
2023/07/10 04:32:01;;;;;;;7.22;4.25;;;19.70;99.90;;;;;;5005646;28;20452;-64
2023/07/10 04:34:27;;;;;;;6.57;3.87;;;19.70;99.90;;;;;;5006060;28;20889;-64
2023/07/10 04:36:52;;;;;;;7.10;3.80;;;19.80;99.90;;;;;;5005983;28;20401;-64
2023/07/10 04:39:18;;;;;;;8.32;3.90;;;19.80;99.90;;;;;;4987319;28;20489;-64
2023/07/10 04:41:44;;;;;;;5.47;3.53;;;19.80;99.90;;;;;;5004776;28;20892;-64
2023/07/10 04:44:10;;;;;;;6.97;3.88;;;19.80;99.90;;;;;;5003780;28;20450;-64
2023/07/10 04:46:36;;;;;;;7.03;3.60;;;19.80;99.90;;;;;;4989004;28;20458;-64
2023/07/10 04:49:01;;;;;;;7.65;3.65;;;19.80;99.90;;;;;;4984655;28;20409;-64
2023/07/10 04:51:27;;;;;;;6.43;3.75;;;19.80;99.90;;;;;;4992327;28;20498;-64
2023/07/10 04:53:53;;;;;;;7.20;3.92;;;19.80;99.90;;;;;;5006146;28;20495;-64
2023/07/10 04:56:19;;;;;;;5.63;3.53;;;19.80;99.90;;;;;;4975093;28;20500;-64
2023/07/10 04:58:58;;;;;;;6.22;3.83;;;19.80;99.90;;;;;;5010106;28;20922;-64
2023/07/10 05:01:26;;;;;;;6.45;3.90;;;19.70;99.90;;;;;;4983309;28;20428;-64
2023/07/10 05:03:53;;;;;;;7.72;4.00;;;19.90;99.90;;;;;;4987293;28;20976;-64
2023/07/10 05:06:19;;;;;;;5.80;3.63;;;19.70;99.90;;;;;;5005117;28;20404;-64
2023/07/10 05:08:46;;;;;;;6.97;3.78;;;19.70;99.90;;;;;;5000891;28;20762;-64
2023/07/10 05:11:12;;;;;;;6.05;3.60;;;19.70;99.90;;;;;;5003698;28;20432;-64
2023/07/10 05:13:38;;;;;;;7.10;3.50;;;19.70;99.90;;;;;;5003200;28;20436;-64
2023/07/10 05:16:04;;;;;;;5.43;3.23;;;19.70;99.90;;;;;;4987023;28;20444;-64
2023/07/10 05:18:30;;;;;;;6.88;3.28;;;19.70;99.90;;;;;;4987875;28;20500;-64
2023/07/10 05:20:58;;;;;;;6.43;3.30;;;19.70;99.90;;;;;;4990994;28;20512;-64
2023/07/10 05:23:24;;;;;;;5.78;3.17;;;19.70;99.90;;;;;;5067599;28;20416;-64
2023/07/10 05:25:58;;;;;;;7.05;3.35;;;19.70;99.90;;;;;;4998838;28;20781;-64
2023/07/10 05:28:24;;;;;;;7.00;3.70;;;19.70;99.90;;;;;;5009219;28;20405;-64
2023/07/10 05:30:50;;;;;;;5.00;2.93;;;19.70;99.90;;;;;;4997112;28;20479;-64
2023/07/10 05:33:15;;;;;;;7.23;3.00;;;19.70;99.90;;;;;;4991861;28;20447;-64
2023/07/10 05:35:56;;;;;;;5.43;2.70;;;19.70;99.90;;;;;;5009140;28;20917;-64
2023/07/10 05:38:24;;;;;;;6.03;2.80;;;19.70;99.90;;;;;;5024351;28;20455;-64
2023/07/10 05:40:50;;;;;;;5.03;2.70;;;19.70;99.90;;;;;;4989840;28;20526;-64
2023/07/10 05:43:15;;;;;;;7.15;2.67;;;19.60;99.90;;;;;;4984291;28;20539;-64
2023/07/10 05:45:41;;;;;;;6.80;2.70;;;19.70;99.90;;;;;;5007284;28;20427;-64
2023/07/10 05:48:08;;;;;;;6.10;2.50;;;19.70;99.90;;;;;;4991109;28;20461;-64
2023/07/10 05:50:33;;;;;;;8.50;2.60;;;19.70;99.90;;;;;;5007383;28;20747;-64
2023/07/10 05:52:59;;;;;;;5.80;2.60;;;19.70;99.90;;;;;;5002577;28;20426;-64
2023/07/10 05:55:24;;;;;;;6.43;2.60;;;19.80;99.90;;;;;;5008139;28;20405;-64
2023/07/10 05:57:50;;;;;;;5.33;2.50;;;19.70;99.90;;;;;;5007589;28;20397;-64
2023/07/10 06:00:16;;;;;;;6.25;2.42;;;19.80;99.90;;;;;;4990719;28;20473;-64
2023/07/10 06:02:42;;;;;;;5.63;2.45;;;19.80;99.90;;;;;;4988155;28;20508;-64
2023/07/10 06:05:08;;;;;;;6.85;2.60;;;19.80;99.90;;;;;;4989944;28;20578;-64
2023/07/10 06:07:34;;;;;;;6.82;2.70;;;19.80;99.90;;;;;;4990723;28;20416;-64
2023/07/10 06:09:59;;;;;;;8.10;2.83;;;19.70;99.90;;;;;;4987178;28;20430;-64
2023/07/10 06:12:25;;;;;;;6.20;2.58;;;19.80;99.90;;;;;;5007614;28;20417;-64
2023/07/10 06:14:51;;;;;;;7.53;3.00;;;19.80;99.90;;;;;;4989028;28;20405;-64
2023/07/10 06:17:16;;;;;;;8.27;2.83;;;19.80;99.90;;;;;;5013856;28;20833;-64
2023/07/10 06:19:42;;;;;;;6.77;2.60;;;19.90;99.90;;;;;;4990347;28;20904;-64
2023/07/10 06:22:10;;;;;;;6.95;2.83;;;19.80;99.90;;;;;;5007957;28;20405;-64
2023/07/10 06:24:36;;;;;;;8.68;2.95;;;19.90;99.90;;;;;;5006843;28;20425;-64
2023/07/10 06:27:02;;;;;;;6.50;2.60;;;19.80;99.90;;;;;;4980546;28;22266;-64
2023/07/10 06:29:29;;;;;;;8.43;2.63;;;19.90;99.90;;;;;;5005533;28;20429;-64
2023/07/10 06:31:54;;;;;;;9.98;2.80;;;19.90;99.90;;;;;;4999366;28;20417;-64
2023/07/10 06:34:20;;;;;;;5.70;2.20;;;19.90;99.90;;;;;;5007386;28;20397;-64
2023/07/10 06:36:46;;;;;;;9.15;2.60;;;19.90;99.90;;;;;;5001898;28;20435;-64
2023/07/10 06:39:11;;;;;;;8.50;2.50;;;19.80;99.90;;;;;;5007508;28;20405;-64
2023/07/10 06:41:37;;;;;;;7.40;2.57;;;19.80;99.90;;;;;;4988887;28;20998;-64
2023/07/10 06:44:03;;;;;;;8.32;2.75;;;19.70;99.90;;;;;;5009946;28;20925;-64
2023/07/10 06:46:28;;;;;;;10.82;3.72;;;19.70;99.90;;;;;;5008079;28;20429;-64
2023/07/10 06:48:54;;;;;;;10.00;3.50;;;19.70;99.90;;;;;;4989913;28;20397;-64
2023/07/10 06:51:19;;;;;;;10.25;4.30;;;19.70;99.90;;;;;;4990025;28;20804;-64
2023/07/10 06:53:45;;;;;;;7.95;3.70;;;19.70;99.90;;;;;;4988865;28;20490;-64
2023/07/10 06:56:10;;;;;;;10.10;4.10;;;19.70;99.90;;;;;;4984048;28;20826;-64
2023/07/10 06:58:36;;;;;;;8.90;3.90;;;19.70;99.90;;;;;;4989494;28;20409;-64
2023/07/10 07:01:03;;;;;;;7.60;3.60;;;20.20;99.90;;;;;;4989893;28;20485;-64
2023/07/10 07:03:29;;;;;;;8.48;4.10;;;19.70;99.90;;;;;;5006913;28;20768;-64
2023/07/10 07:05:55;;;;;;;11.13;4.25;;;19.70;99.90;;;;;;4992536;28;20426;-64
2023/07/10 07:08:22;;;;;;;10.52;4.40;;;19.70;99.90;;;;;;5005821;28;20945;-64
2023/07/10 07:10:50;;;;;;;8.52;3.95;;;19.70;99.90;;;;;;5007371;28;20408;-64
2023/07/10 07:13:16;;;;;;;11.05;4.00;;;19.70;99.90;;;;;;5008306;28;20451;-64
2023/07/10 07:15:42;;;;;;;11.77;4.10;;;19.80;99.90;;;;;;5013197;28;20401;-64
2023/07/10 07:18:08;;;;;;;8.73;4.00;;;19.80;99.90;;;;;;4989850;28;20424;-64
2023/07/10 07:20:34;;;;;;;11.15;4.00;;;19.90;99.90;;;;;;5007209;28;20926;-64
2023/07/10 07:23:00;;;;;;;9.93;4.00;;;19.90;99.90;;;;;;5004138;28;20409;-64
2023/07/10 07:25:28;;;;;;;10.50;3.72;;;19.90;99.90;;;;;;5010271;28;20399;-64
2023/07/10 07:27:59;;;;;;;10.27;3.80;;;20.00;99.90;;;;;;4994839;28;20455;-64
2023/07/10 07:30:25;;;;;;;9.73;3.60;;;20.00;99.90;;;;;;4993636;28;20409;-64
2023/07/10 07:32:51;;;;;;;11.52;4.28;;;20.00;99.90;;;;;;5007192;28;20897;-64
2023/07/10 07:35:16;;;;;;;10.97;4.00;;;20.00;99.90;;;;;;5009956;28;20401;-64
2023/07/10 07:37:42;;;;;;;10.10;3.95;;;20.10;99.90;;;;;;5005220;28;20406;-64
2023/07/10 07:40:09;;;;;;;11.67;4.43;;;20.10;99.90;;;;;;5006592;28;20432;-64
2023/07/10 07:42:35;;;;;;;11.65;4.00;;;20.20;99.90;;;;;;5073692;28;20937;-64
2023/07/10 07:45:01;;;;;;;10.35;4.00;;;20.20;99.90;;;;;;4988232;28;20409;-64
2023/07/10 07:47:27;;;;;;;10.30;3.75;;;20.30;99.90;;;;;;4992358;28;20837;-64
2023/07/10 07:49:53;;;;;;;8.82;3.45;;;20.30;99.90;;;;;;5006622;28;20440;-64
2023/07/10 07:52:19;;;;;;;12.27;3.38;;;20.30;99.90;;;;;;5012417;28;20493;-64
2023/07/10 07:54:44;;;;;;;10.32;3.38;;;20.40;99.90;;;;;;5006123;28;20447;-64
2023/07/10 07:57:10;;;;;;;11.95;3.65;;;20.50;99.90;;;;;;5006804;28;20401;-64
2023/07/10 07:59:35;;;;;;;12.17;3.80;;;20.50;99.90;;;;;;5006606;28;20888;-64
2023/07/10 08:02:01;;;;;;;12.80;3.80;;;20.50;99.90;;;;;;5006614;28;21111;-64
2023/07/10 08:04:27;;;;;;;10.13;3.95;;;20.50;99.90;;;;;;5006695;28;20401;-64
2023/07/10 08:06:52;;;;;;;10.00;3.57;;;20.60;99.90;;;;;;5006201;28;20405;-64
2023/07/10 08:09:18;;;;;;;9.00;3.40;;;20.70;99.90;;;;;;4988126;28;20424;-64
2023/07/10 08:11:44;;;;;;;10.52;3.42;;;20.80;99.90;;;;;;4988548;28;20466;-64
2023/07/10 08:14:10;;;;;;;9.43;3.13;;;20.80;99.90;;;;;;4990097;28;20400;-64
2023/07/10 08:16:36;;;;;;;10.80;3.40;;;20.90;99.90;;;;;;4990241;28;20913;-64
2023/07/10 08:19:01;;;;;;;10.55;3.50;;;21.00;99.90;;;;;;4973804;28;20434;-64
2023/07/10 08:21:27;;;;;;;11.30;3.40;;;21.10;99.90;;;;;;4973696;28;20432;-64
2023/07/10 08:23:53;;;;;;;9.03;3.00;;;21.20;99.90;;;;;;4987966;28;20425;-64
2023/07/10 08:26:18;;;;;;;8.30;3.30;;;21.30;99.90;;;;;;4982456;28;20401;-64
2023/07/10 08:28:44;;;;;;;9.63;3.55;;;21.50;99.90;;;;;;5006678;28;20401;-64
2023/07/10 08:31:10;;;;;;;10.20;3.30;;;21.70;99.90;;;;;;5000062;28;20926;-64
2023/07/10 08:33:35;;;;;;;9.30;3.27;;;21.90;99.90;;;;;;5004537;28;20917;-64
2023/07/10 08:36:04;;;;;;;8.38;3.30;;;22.10;99.90;;;;;;5056759;28;20561;-64
2023/07/10 08:38:32;;;;;;;10.87;3.43;;;22.30;99.90;;;;;;4989086;28;20404;-64
2023/07/10 08:41:02;;;;;;;11.43;3.43;;;22.50;99.90;;;;;;4985477;28;20456;-64
2023/07/10 08:43:30;;;;;;;9.10;3.30;;;22.80;99.90;;;;;;5005909;28;20408;-64
2023/07/10 08:46:29;;;;;;;9.33;3.60;;;23.00;99.90;;;;;;5004250;28;20987;-65
2023/07/10 08:49:12;;;;;;;9.75;3.47;;;23.20;99.90;;;;;;5007064;28;20409;-64
2023/07/10 08:51:41;;;;;;;10.23;2.90;;;23.30;99.90;;;;;;5073008;28;20420;-64
2023/07/10 08:54:16;;;;;;;10.05;3.45;;;23.30;99.90;;;;;;5007558;28;20407;-64
2023/07/10 08:57:19;;;;;;;10.35;3.20;;;23.60;99.90;;;;;;4991493;28;20411;-64
2023/07/10 09:00:06;;;;;;;11.63;3.47;;;23.80;99.90;;;;;;5071083;28;20941;-64
2023/07/10 09:02:51;;;;;;;10.77;3.70;;;24.00;99.90;;;;;;5001726;28;20409;-64
2023/07/10 09:05:29;;;;;;;11.07;3.50;;;24.20;99.90;;;;;;4978740;28;20500;-64
2023/07/10 09:07:59;;;;;;;9.70;3.63;;;24.40;99.90;;;;;;5009312;28;20819;-64
2023/07/10 09:10:41;;;;;;;9.52;3.10;;;24.50;99.90;;;;;;5009576;28;20440;-64
2023/07/10 09:13:13;;;;;;;10.73;3.30;;;24.60;99.90;;;;;;5008956;28;20397;-64
2023/07/10 09:15:53;;;;;;;11.23;2.95;;;24.70;99.60;;;;;;5007446;28;20395;-64
2023/07/10 09:18:40;;;;;;;12.48;3.05;;;24.70;99.30;;;;;;4991574;28;20743;-64
2023/07/10 09:21:25;;;;;;;10.52;2.92;;;24.90;99.20;;;;;;5008957;28;20468;-64
2023/07/10 09:23:51;;;;;;;9.48;2.92;;;25.20;98.10;;;;;;5011072;28;20820;-65
2023/07/10 09:26:21;;;;;;;8.35;2.92;;;25.30;95.80;;;;;;5008890;28;20960;-65
2023/07/10 09:28:56;;;;;;;9.48;2.88;;;25.20;94.90;;;;;;4994696;28;20418;-64
2023/07/10 09:31:55;;;;;;;8.55;3.03;;;25.30;94.90;;;;;;4999292;28;20838;-64
2023/07/10 09:34:31;;;;;;;8.32;2.90;;;25.30;94.30;;;;;;5008679;28;20445;-65
2023/07/10 09:36:58;;;;;;;12.70;3.22;;;25.40;94.30;;;;;;5009658;28;20405;-65
2023/07/10 09:39:29;;;;;;;8.65;3.17;;;25.50;93.70;;;;;;4991408;28;20412;-65
2023/07/10 09:42:03;;;;;;;9.83;2.97;;;25.60;93.50;;;;;;5009186;28;20566;-64
2023/07/10 09:44:44;;;;;;;10.45;3.20;;;25.60;93.70;;;;;;5004093;28;20401;-64
2023/07/10 09:47:12;;;;;;;9.27;3.10;;;25.60;92.80;;;;;;4994570;28;20470;-65
2023/07/10 09:49:46;;;;;;;10.43;3.13;;;25.60;92.90;;;;;;4985098;28;20421;-65
2023/07/10 09:52:37;;;;;;;9.63;2.83;;;25.70;93.60;;;;;;5000783;28;20757;-65
2023/07/10 09:55:11;;;;;;;8.27;2.80;;;25.70;92.80;;;;;;5007203;28;20393;-64
2023/07/10 09:57:57;;;;;;;10.02;3.20;;;25.80;92.50;;;;;;4990697;28;20424;-63
2023/07/10 10:00:24;;;;;;;8.88;3.35;;;25.80;93.30;;;;;;5000585;28;20478;-69
2023/07/10 10:03:00;;;;;;;10.20;3.03;;;25.80;92.90;;;;;;5007933;28;20922;-65
2023/07/10 10:05:27;;;;;;;10.25;3.30;;;25.90;94.10;;;;;;5008135;28;20393;-65
2023/07/10 10:08:04;;;;;;;10.15;3.13;;;25.90;92.50;;;;;;5006921;28;20405;-65
2023/07/10 10:10:35;;;;;;;10.50;3.20;;;25.90;92.00;;;;;;4994642;28;20977;-65
2023/07/10 10:13:24;;;;;;;9.57;3.08;;;26.00;93.00;;;;;;5007118;28;20448;-66
2023/07/10 10:16:19;;;;;;;10.35;3.28;;;26.50;92.80;;;;;;4986466;28;20405;-65
2023/07/10 10:19:03;;;;;;;11.82;2.90;;;26.60;92.50;;;;;;5073821;28;20786;-65
2023/07/10 10:21:32;;;;;;;9.00;2.90;;;26.80;91.40;;;;;;5005901;28;20433;-65
2023/07/10 10:24:00;;;;;;;9.95;3.13;;;27.00;90.90;;;;;;4987174;28;20823;-66
2023/07/10 10:26:58;;;;;;;11.00;3.10;;;27.20;90.90;;;;;;4990290;28;20424;-65
2023/07/10 10:30:06;;;;;;;8.77;2.80;;;27.30;89.60;;;;;;4986089;28;20393;-65
2023/07/10 10:32:54;;;;;;;8.50;2.70;;;27.50;88.40;;;;;;5006210;28;20754;-65
2023/07/10 10:35:50;;;;;;;9.00;2.80;;;27.60;86.80;;;;;;5006400;28;20500;-66
2023/07/10 10:38:23;;;;;;;8.68;2.75;;;27.60;84.60;;;;;;5005776;28;20930;-65
2023/07/10 10:40:52;;;;;;;8.80;2.77;;;27.40;83.50;;;;;;4996943;28;20496;-65
2023/07/10 10:43:25;;;;;;;9.82;2.80;;;27.20;82.00;;;;;;4990324;28;21265;-65
2023/07/10 10:46:09;;;;;;;7.85;2.67;;;27.00;83.60;;;;;;5010315;28;20512;-66
2023/07/10 10:49:04;;;;;;;8.00;3.00;;;26.90;82.90;;;;;;4988343;28;20405;-63
2023/07/10 10:51:45;;;;;;;6.63;2.58;;;26.80;84.20;;;;;;5000258;28;20434;-65
2023/07/10 10:54:17;;;;;;;9.38;2.83;;;27.00;83.90;;;;;;5011186;28;20491;-65
2023/07/10 10:56:49;;;;;;;10.55;3.10;;;27.30;83.70;;;;;;4990905;28;20421;-66
2023/07/10 10:59:52;;;;;;;8.70;2.72;;;27.50;83.60;;;;;;4990231;28;20492;-65
2023/07/10 11:02:30;;;;;;;7.28;2.58;;;27.60;82.30;;;;;;4989986;28;20417;-64
2023/07/10 11:05:23;;;;;;;9.00;2.67;;;27.60;82.50;;;;;;4994156;28;20462;-64
2023/07/10 11:07:55;;;;;;;10.65;2.78;;;27.70;83.30;;;;;;5002580;28;20836;-65
2023/07/10 11:10:49;;;;;;;9.25;2.88;;;27.60;81.80;;;;;;5007164;28;20495;-66
2023/07/10 11:13:39;;;;;;;7.95;2.90;;;27.50;82.50;;;;;;5006226;28;20432;-65
2023/07/10 11:16:06;;;;;;;10.68;2.90;;;27.30;83.20;;;;;;5008874;28;20409;-66
2023/07/10 11:18:33;;;;;;;6.97;2.38;;;27.10;82.60;;;;;;5014339;28;20809;-64
2023/07/10 11:21:01;;;;;;;8.02;2.28;;;27.00;80.00;;;;;;4972804;28;20429;-65
2023/07/10 11:23:41;;;;;;;9.75;2.70;;;27.00;80.40;;;;;;4990935;28;21363;-66
2023/07/10 11:26:17;;;;;;;8.73;2.60;;;27.20;81.40;;;;;;5072513;28;20432;-65
2023/07/10 11:28:59;;;;;;;8.68;2.53;;;27.40;79.90;;;;;;4973669;28;20419;-66
2023/07/10 11:31:31;;;;;;;6.40;1.90;;;27.50;78.10;;;;;;5014446;28;20977;-65
2023/07/10 11:34:19;;;;;;;6.53;2.17;;;27.60;75.40;;;;;;5006814;28;20419;-64
2023/07/10 11:36:46;;;;;;;7.53;2.38;;;27.80;76.10;;;;;;5069430;28;20417;-65
2023/07/10 11:39:26;;;;;;;8.30;2.60;;;27.90;75.70;;;;;;5006967;28;20397;-66
2023/07/10 11:41:51;;;;;;;8.00;2.55;;;28.00;76.10;;;;;;5003304;28;20443;-65
2023/07/10 11:44:32;;;;;;;7.73;2.50;;;28.10;76.00;;;;;;5007223;28;20413;-66
2023/07/10 11:46:59;;;;;;;7.15;2.33;;;28.00;75.50;;;;;;5000497;28;20515;-62
2023/07/10 11:49:45;;;;;;;6.13;2.40;;;28.00;76.80;;;;;;5005001;28;20493;-65
2023/07/10 11:52:14;;;;;;;9.32;2.70;;;28.00;74.40;;;;;;5014354;28;20400;-63
2023/07/10 11:54:42;;;;;;;8.07;2.50;;;28.00;73.90;;;;;;4991100;28;20416;-65
2023/07/10 11:57:10;;;;;;;8.80;2.47;;;28.00;77.10;;;;;;5012860;28;20426;-63
2023/07/10 11:59:38;;;;;;;8.38;2.55;;;28.10;76.40;;;;;;5006873;28;20488;-63
2023/07/10 12:02:31;;;;;;;6.90;2.53;;;28.20;76.00;;;;;;5008908;28;20439;-63
2023/07/10 12:05:30;;;;;;;9.70;2.50;;;28.50;75.00;;;;;;4992999;28;20447;-63
2023/07/10 12:07:56;;;;;;;7.65;2.30;;;28.50;73.60;;;;;;4987738;28;20492;-64
2023/07/10 12:10:24;;;;;;;8.27;2.70;;;28.70;73.40;;;;;;4975142;28;20977;-63
2023/07/10 12:12:51;;;;;;;7.20;2.30;;;28.80;72.80;;;;;;5006837;28;20432;-63
2023/07/10 12:15:17;;;;;;;5.57;2.17;;;28.90;71.50;;;;;;5073490;28;20417;-64
2023/07/10 12:17:43;;;;;;;4.60;1.95;;;29.10;70.90;;;;;;4989291;28;20413;-64
2023/07/10 12:20:28;;;;;;;6.60;2.37;;;29.10;70.10;;;;;;5011481;28;20419;-63
2023/07/10 12:22:59;;;;;;;7.35;2.30;;;29.10;68.50;;;;;;5007094;28;20473;-63
2023/07/10 12:25:24;;;;;;;8.85;2.40;;;28.90;66.30;;;;;;5011375;28;20397;-63
2023/07/10 12:27:50;;;;;;;7.17;2.03;;;28.70;67.00;;;;;;5006594;28;20989;-63
2023/07/10 12:30:25;;;;;;;7.03;2.28;;;28.70;68.00;;;;;;4993388;28;20409;-63
2023/07/10 12:32:53;;;;;;;7.57;2.10;;;28.80;67.70;;;;;;5010849;28;20397;-63
2023/07/10 12:35:26;;;;;;;6.90;2.08;;;28.80;66.50;;;;;;5007207;28;20463;-63
2023/07/10 12:37:52;;;;;;;7.35;1.92;;;28.70;66.10;;;;;;4989076;28;20417;-62
2023/07/10 12:40:18;;;;;;;6.50;1.97;;;28.50;66.80;;;;;;5006389;28;20459;-62
2023/07/10 12:42:46;;;;;;;5.47;1.92;;;28.50;65.70;;;;;;5011785;28;20405;-63
2023/07/10 12:45:35;;;;;;;6.72;2.00;;;28.40;67.10;;;;;;4986683;28;20902;-63
2023/07/10 12:48:07;;;;;;;6.43;2.27;;;28.30;66.60;;;;;;5005705;28;20470;-63
2023/07/10 12:50:51;;;;;;;6.63;1.85;;;28.20;67.20;;;;;;5006114;28;20405;-63
2023/07/10 12:53:20;;;;;;;5.43;1.90;;;28.20;64.50;;;;;;4981543;28;20407;-63